Altus, OK

7:10 AM CST on February 23, 2017 (GMT -0600)
Altus Municipal

Weather History for KAXS - January, 2013

Change the Weather History Date:

Thursday, January 17, 2013

  Actual Average (KLTS) Record (KLTS)
Temperature  
Mean Temperature 44 °F -  
Max Temperature 57 °F 50 °F 68 °F (2015)
Min Temperature 32 °F 27 °F 14 °F (1997)
Degree Days  
Heating Degree Days 20    
Moisture  
Dew Point 30 °F    
Average Humidity 63    
Maximum Humidity 87    
Minimum Humidity 36    
Precipitation  
Precipitation 0.00 in - - ()
Sea Level Pressure  
Sea Level Pressure 30.45 in    
Wind  
Wind Speed 8 mph (North)    
Max Wind Speed 15 mph    
Max Gust Speed -    
Visibility 10 miles    
Events      
Averages and records for this station are not official NWS values.
T = Trace of Precipitation, MM = Missing Value Source: NWS Daily Summary

Daily Weather History Graph

Daily Weather History Graph

Search for Another Location

Airport or City:

Trip Planner

Search our weather history database for the weather conditions in past years. The results will help you decide how hot, cold, wet, or windy it might be!

Date:

Astronomy

Jan. 17, 2013 Rise Set
Actual Time 7:43 AM CST 5:51 PM CST
Civil Twilight 7:16 AM CST 6:19 PM CST
Nautical Twilight 6:45 AM CST 6:50 PM CST
Astronomical Twilight 6:15 AM CST 7:20 PM CST
Moon 11:09 AM CST (1/17) No Moon Set
Length of Visible Light 11h 03m
Length of Day
10h 08m
Waxing Crescent, 38% of the Moon is Illuminated
Jan 17
Waxing Crescent
Jan 18
First Quarter
Jan 26
Full
Feb 3
Last Quarter
Feb 10
New

Hourly Weather History & Observations

Time (CST) Temp. Windchill Dew Point Humidity Pressure Visibility Wind Dir Wind Speed Gust Speed Precip Events Conditions
12:15 AM 33.8 °F 25.3 °F 30.2 °F 87% 30.29 in 10.0 mi North 11.5 mph - N/A   Clear
12:35 AM 32.0 °F 23.6 °F 28.4 °F 87% 30.30 in 10.0 mi North 10.4 mph - N/A   Clear
1:15 AM 33.8 °F 24.8 °F 30.2 °F 87% 30.31 in 10.0 mi North 12.7 mph - N/A   Clear
1:35 AM 33.8 °F 24.8 °F 30.2 °F 87% 30.32 in 10.0 mi North 12.7 mph - N/A   Clear
1:55 AM 35.6 °F 26.2 °F 30.2 °F 81% 30.33 in 10.0 mi North 15.0 mph - N/A   Clear
2:15 AM 33.8 °F 25.8 °F 28.4 °F 81% 30.33 in 10.0 mi North 10.4 mph - N/A   Clear
2:35 AM 32.0 °F 23.0 °F 28.4 °F 87% 30.34 in 10.0 mi NNW 11.5 mph - N/A   Clear
2:55 AM 33.8 °F 27.0 °F 28.4 °F 81% 30.35 in 10.0 mi NNW 8.1 mph - N/A   Clear
3:15 AM 33.8 °F 28.6 °F 28.4 °F 81% 30.35 in 10.0 mi NNW 5.8 mph - N/A   Clear
3:35 AM 33.8 °F 27.7 °F 28.4 °F 81% 30.35 in 10.0 mi NNW 6.9 mph - N/A   Clear
3:55 AM 33.8 °F 27.7 °F 28.4 °F 81% 30.36 in 10.0 mi NNW 6.9 mph - N/A   Clear
4:15 AM 33.8 °F 28.6 °F 28.4 °F 81% 30.36 in 10.0 mi NNW 5.8 mph - N/A   Clear
4:35 AM 35.6 °F 27.1 °F 28.4 °F 75% 30.36 in 10.0 mi NNW 12.7 mph - N/A   Clear
5:15 AM 35.6 °F 28.6 °F 28.4 °F 75% 30.38 in 10.0 mi North 9.2 mph - N/A   Clear
5:35 AM 35.6 °F 27.5 °F 28.4 °F 75% 30.39 in 10.0 mi North 11.5 mph - N/A   Clear
5:55 AM 35.6 °F 27.5 °F 28.4 °F 75% 30.39 in 10.0 mi North 11.5 mph - N/A   Clear
6:15 AM 33.8 °F 25.8 °F 28.4 °F 81% 30.40 in 10.0 mi NNW 10.4 mph - N/A   Clear
6:35 AM 33.8 °F 27.0 °F 28.4 °F 81% 30.41 in 10.0 mi NNW 8.1 mph - N/A   Clear
6:55 AM 35.6 °F 31.7 °F 28.4 °F 75% 30.43 in 10.0 mi North 4.6 mph - N/A   Clear
7:15 AM 35.6 °F 31.7 °F 28.4 °F 75% 30.43 in 10.0 mi NW 4.6 mph - N/A   Clear
7:35 AM 33.8 °F 25.8 °F 28.4 °F 81% 30.45 in 10.0 mi NW 10.4 mph - N/A   Clear
7:55 AM 33.8 °F 24.8 °F 28.4 °F 81% 30.45 in 10.0 mi NNW 12.7 mph - N/A   Clear
8:15 AM 33.8 °F 26.4 °F 28.4 °F 81% 30.46 in 10.0 mi NNW 9.2 mph - N/A   Clear
8:35 AM 35.6 °F 31.7 °F 28.4 °F 75% 30.48 in 10.0 mi NNW 4.6 mph - N/A   Clear
8:55 AM 35.6 °F 32.8 °F 30.2 °F 81% 30.49 in 10.0 mi West 3.5 mph - N/A   Clear
9:15 AM 37.4 °F 32.8 °F 30.2 °F 75% 30.50 in 10.0 mi NNW 5.8 mph - N/A   Clear
9:35 AM 42.8 °F 38.0 °F 30.2 °F 61% 30.52 in 10.0 mi NNW 8.1 mph - N/A   Clear
9:55 AM 44.6 °F 40.2 °F 30.2 °F 57% 30.53 in 10.0 mi North 8.1 mph - N/A   Clear
10:15 AM 44.6 °F 40.2 °F 32.0 °F 61% 30.54 in 10.0 mi North 8.1 mph - N/A   Clear
10:35 AM 46.4 °F 41.5 °F 32.0 °F 57% 30.55 in 10.0 mi NE 10.4 mph - N/A   Clear
10:55 AM 46.4 °F 41.9 °F 32.0 °F 57% 30.55 in 10.0 mi NNE 9.2 mph - N/A   Clear
11:15 AM 48.2 °F - 32.0 °F 54% 30.55 in 10.0 mi NE 8.1 mph - N/A   Clear
11:35 AM 50.0 °F - 32.0 °F 50% 30.54 in 10.0 mi ENE 6.9 mph - N/A   Clear
11:55 AM 50.0 °F - 32.0 °F 50% 30.53 in 10.0 mi NNE 4.6 mph - N/A   Clear
12:15 PM 51.8 °F - 30.2 °F 44% 30.52 in 10.0 mi North 5.8 mph - N/A   Clear
12:35 PM 51.8 °F - 30.2 °F 44% 30.52 in 10.0 mi Calm Calm - N/A   Clear
12:55 PM 53.6 °F - 32.0 °F 44% 30.51 in 10.0 mi NNW 5.8 mph - N/A   Clear
1:15 PM 53.6 °F - 30.2 °F 41% 30.50 in 10.0 mi North 4.6 mph - N/A   Clear
1:35 PM 53.6 °F - 30.2 °F 41% 30.49 in 10.0 mi North 8.1 mph - N/A   Clear
1:55 PM 53.6 °F - 30.2 °F 41% 30.48 in 10.0 mi North 10.4 mph - N/A   Clear
2:15 PM 55.4 °F - 30.2 °F 38% 30.48 in 10.0 mi NNE 3.5 mph - N/A   Clear
2:35 PM 55.4 °F - 30.2 °F 38% 30.47 in 10.0 mi North 4.6 mph - N/A   Clear
2:55 PM 55.4 °F - 30.2 °F 38% 30.47 in 10.0 mi North 6.9 mph - N/A   Clear
3:15 PM 57.2 °F - 30.2 °F 36% 30.47 in 10.0 mi NNE 6.9 mph - N/A   Clear
3:35 PM 57.2 °F - 30.2 °F 36% 30.47 in 10.0 mi NE 6.9 mph - N/A   Clear
3:55 PM 55.4 °F - 30.2 °F 38% 30.47 in 10.0 mi NE 4.6 mph - N/A   Clear
4:15 PM 55.4 °F - 30.2 °F 38% 30.47 in 10.0 mi Calm Calm - N/A   Clear
4:35 PM 55.4 °F - 30.2 °F 38% 30.47 in 10.0 mi East 4.6 mph - N/A   Clear
4:55 PM 55.4 °F - 30.2 °F 38% 30.47 in 10.0 mi ESE 4.6 mph - N/A   Clear
5:15 PM 55.4 °F - 32.0 °F 41% 30.47 in 10.0 mi East 3.5 mph - N/A   Clear
5:35 PM 53.6 °F - 32.0 °F 44% 30.48 in 10.0 mi Calm Calm - N/A   Clear
5:55 PM 51.8 °F - 32.0 °F 47% 30.48 in 10.0 mi Calm Calm - N/A   Clear
6:15 PM 50.0 °F - 32.0 °F 50% 30.48 in 10.0 mi SE 3.5 mph - N/A   Clear
6:35 PM 50.0 °F - 32.0 °F 50% 30.48 in 10.0 mi Calm Calm - N/A   Clear
6:55 PM 46.4 °F - 32.0 °F 57% 30.48 in 10.0 mi Calm Calm - N/A   Clear
7:15 PM 44.6 °F 43.1 °F 30.2 °F 57% 30.49 in 10.0 mi ESE 3.5 mph - N/A   Clear
7:35 PM 42.8 °F 41.1 °F 30.2 °F 61% 30.49 in 10.0 mi East 3.5 mph - N/A   Clear
8:15 PM 41.0 °F - 30.2 °F 65% 30.49 in 10.0 mi Calm Calm - N/A   Clear
8:35 PM 42.8 °F 41.1 °F 30.2 °F 61% 30.49 in 10.0 mi ESE 3.5 mph - N/A   Clear
8:55 PM 42.8 °F 41.1 °F 30.2 °F 61% 30.50 in 10.0 mi SSE 3.5 mph - N/A   Clear
9:15 PM 41.0 °F 39.0 °F 30.2 °F 65% 30.51 in 10.0 mi SSE 3.5 mph - N/A   Clear
9:35 PM 39.2 °F - 30.2 °F 70% 30.51 in 10.0 mi Calm Calm - N/A   Clear
9:55 PM 35.6 °F - 30.2 °F 81% 30.51 in 10.0 mi Calm Calm - N/A   Clear
11:15 PM 39.2 °F - 30.2 °F 70% 30.51 in 10.0 mi Calm Calm - N/A   Clear
11:35 PM 39.2 °F - 30.2 °F 70% 30.50 in 10.0 mi Calm Calm - N/A   Clear
11:55 PM 37.4 °F - 30.2 °F 75% 30.50 in 10.0 mi Calm Calm - N/A   Clear